createdAt,value
2022-12-19T00:00:50.012Z,34.82
2022-12-19T00:03:28.093Z,34.55
2022-12-19T00:05:56.476Z,34.62
2022-12-19T00:08:24.603Z,34.36
2022-12-19T00:10:59.381Z,34.33
2022-12-19T00:13:29.547Z,34.41
2022-12-19T00:16:08.827Z,34.31
2022-12-19T00:18:39.877Z,34.25
2022-12-19T00:21:08.752Z,34.25
2022-12-19T00:23:37.288Z,34.13
2022-12-19T00:26:17.613Z,34.45
2022-12-19T00:28:52.352Z,34.40
2022-12-19T00:31:22.848Z,34.55
2022-12-19T00:33:51.862Z,34.63
2022-12-19T00:36:24.130Z,34.75
2022-12-19T00:38:55.575Z,34.88
2022-12-19T00:41:33.481Z,35.03
2022-12-19T00:44:07.832Z,34.92
2022-12-19T00:46:36.999Z,35.06
2022-12-19T00:49:06.264Z,35.09
2022-12-19T00:51:37.339Z,35.07
2022-12-19T00:54:07.260Z,35.04
2022-12-19T00:56:37.981Z,35.03
2022-12-19T00:59:09.258Z,34.99
2022-12-19T01:01:41.671Z,34.79
2022-12-19T01:04:31.225Z,35.00
2022-12-19T01:07:03.144Z,35.04
2022-12-19T01:09:37.220Z,34.96
2022-12-19T01:12:25.113Z,34.86
2022-12-19T01:15:04.514Z,34.82
2022-12-19T01:17:44.085Z,34.61
2022-12-19T01:20:26.190Z,34.76
2022-12-19T01:23:00.163Z,34.61
2022-12-19T01:25:29.556Z,34.52
2022-12-19T01:27:57.969Z,34.59
2022-12-19T01:30:27.690Z,34.47
2022-12-19T01:32:58.819Z,34.42
2022-12-19T01:35:28.757Z,34.38
2022-12-19T01:38:07.935Z,34.36
2022-12-19T01:40:37.783Z,34.31
2022-12-19T01:43:12.726Z,34.27
2022-12-19T01:45:45.943Z,34.30
2022-12-19T01:48:44.431Z,34.20
2022-12-19T01:51:22.903Z,34.16
2022-12-19T01:54:04.394Z,34.14
2022-12-19T01:56:38.993Z,34.25
2022-12-19T01:59:14.433Z,34.01
2022-12-19T02:01:51.066Z,33.98
2022-12-19T02:04:32.182Z,33.95
2022-12-19T02:07:15.075Z,33.96
2022-12-19T02:09:49.602Z,33.99
2022-12-19T02:12:26.574Z,33.99
2022-12-19T02:15:00.927Z,33.78
2022-12-19T02:17:45.205Z,34.01
2022-12-19T02:20:29.404Z,33.89
2022-12-19T02:23:24.615Z,33.91
2022-12-19T02:26:53.433Z,33.80
2022-12-19T02:29:53.775Z,33.78
2022-12-19T02:32:52.974Z,33.68
2022-12-19T02:36:12.560Z,33.72
2022-12-19T02:38:50.968Z,33.82
2022-12-19T02:41:23.956Z,33.68
2022-12-19T02:43:58.896Z,33.65
2022-12-19T02:46:29.580Z,33.47
2022-12-19T02:48:59.318Z,33.66
2022-12-19T02:51:27.513Z,33.61
2022-12-19T02:53:55.585Z,33.52
2022-12-19T02:56:55.000Z,33.50
2022-12-19T02:59:53.957Z,33.46
2022-12-19T03:02:53.846Z,33.45
2022-12-19T03:06:23.854Z,33.49
2022-12-19T03:09:30.414Z,33.72
2022-12-19T03:12:14.095Z,33.77
2022-12-19T03:14:47.978Z,33.79
2022-12-19T03:17:19.486Z,33.67
2022-12-19T03:19:48.610Z,33.62
2022-12-19T03:22:16.746Z,33.80
2022-12-19T03:24:44.965Z,33.50
2022-12-19T03:27:24.317Z,33.32
2022-12-19T03:30:05.171Z,33.27
2022-12-19T03:32:36.602Z,32.90
2022-12-19T03:35:17.185Z,32.98
2022-12-19T03:37:48.028Z,32.92
2022-12-19T03:40:22.343Z,32.95
2022-12-19T03:43:11.920Z,32.80
2022-12-19T03:46:25.995Z,32.70
2022-12-19T03:48:55.209Z,32.59
2022-12-19T03:51:59.231Z,32.65
2022-12-19T03:54:33.084Z,32.54
2022-12-19T03:57:07.819Z,31.83
2022-12-19T04:00:04.547Z,29.52
2022-12-19T04:02:45.745Z,28.98
2022-12-19T04:05:20.131Z,29.57
2022-12-19T04:07:50.284Z,29.82
2022-12-19T04:10:22.662Z,30.28
2022-12-19T04:13:00.269Z,30.53
2022-12-19T04:15:54.389Z,30.85
2022-12-19T04:18:23.498Z,31.01
2022-12-19T04:21:02.559Z,31.07
2022-12-19T04:23:39.229Z,31.19
2022-12-19T04:26:08.844Z,31.15
2022-12-19T04:28:54.680Z,31.16
2022-12-19T04:31:23.964Z,31.21
2022-12-19T04:33:52.203Z,31.28
2022-12-19T04:36:20.344Z,31.03
2022-12-19T04:38:48.868Z,31.02
2022-12-19T04:41:17.137Z,31.10
2022-12-19T04:43:45.317Z,30.86
2022-12-19T04:46:13.417Z,30.75
2022-12-19T04:48:41.573Z,30.88
2022-12-19T04:51:10.243Z,30.88
2022-12-19T04:53:38.422Z,30.90
2022-12-19T04:56:07.609Z,30.87
2022-12-19T04:58:35.991Z,30.96
2022-12-19T05:01:07.086Z,31.07
2022-12-19T05:03:37.077Z,31.14
2022-12-19T05:06:14.950Z,31.30
2022-12-19T05:08:44.202Z,31.41
2022-12-19T05:11:19.396Z,31.58
2022-12-19T05:13:50.127Z,31.84
2022-12-19T05:16:18.928Z,31.96
2022-12-19T05:18:47.444Z,32.03
2022-12-19T05:21:15.540Z,32.08
2022-12-19T05:23:43.714Z,32.51
2022-12-19T05:26:12.295Z,32.71
2022-12-19T05:28:40.429Z,33.04
2022-12-19T05:31:13.753Z,33.14
2022-12-19T05:33:42.986Z,33.28
2022-12-19T05:36:14.058Z,33.34
2022-12-19T05:38:42.863Z,33.42
2022-12-19T05:41:18.893Z,33.57
2022-12-19T05:43:54.701Z,33.03
2022-12-19T05:46:24.306Z,32.17
2022-12-19T05:48:53.136Z,31.85
2022-12-19T05:51:22.088Z,31.35
2022-12-19T05:53:50.412Z,30.93
2022-12-19T05:56:22.070Z,30.61
2022-12-19T05:58:50.839Z,30.95
2022-12-19T06:01:24.045Z,30.90
2022-12-19T06:03:54.115Z,31.10
2022-12-19T06:06:26.229Z,31.19
2022-12-19T06:08:58.753Z,31.09
2022-12-19T06:11:27.698Z,31.75
2022-12-19T06:13:55.971Z,31.83
2022-12-19T06:16:24.799Z,31.94
2022-12-19T06:18:53.203Z,32.05
2022-12-19T06:21:23.765Z,32.17
2022-12-19T06:23:52.016Z,29.89
2022-12-19T06:26:22.603Z,30.13
2022-12-19T06:28:52.853Z,31.16
2022-12-19T06:31:24.135Z,27.52
2022-12-19T06:33:52.988Z,26.95
2022-12-19T06:36:30.322Z,28.96
2022-12-19T06:38:59.013Z,29.64
2022-12-19T06:41:46.293Z,30.26
2022-12-19T06:44:17.144Z,30.67
2022-12-19T06:46:45.332Z,30.43
2022-12-19T06:49:13.929Z,26.88
2022-12-19T06:51:42.508Z,27.40
2022-12-19T06:54:12.461Z,28.63
2022-12-19T06:56:43.143Z,29.07
2022-12-19T06:59:16.558Z,29.06
2022-12-19T07:02:00.825Z,29.03
2022-12-19T07:04:51.876Z,28.77
2022-12-19T07:07:20.182Z,28.79
2022-12-19T07:09:49.006Z,28.56
2022-12-19T07:12:17.247Z,28.59
2022-12-19T07:14:50.236Z,28.44
2022-12-19T07:17:24.764Z,28.34
2022-12-19T07:19:58.094Z,28.26
2022-12-19T07:22:31.962Z,28.12
2022-12-19T07:25:02.700Z,28.04
2022-12-19T07:27:35.697Z,28.10
2022-12-19T07:30:07.952Z,28.04
2022-12-19T07:32:36.670Z,27.94
2022-12-19T07:35:07.000Z,27.82
2022-12-19T07:37:35.583Z,27.87
2022-12-19T07:40:04.963Z,27.88
2022-12-19T07:42:34.257Z,27.74
2022-12-19T07:45:02.932Z,27.72
2022-12-19T07:47:31.522Z,27.74
2022-12-19T07:49:59.808Z,27.39
2022-12-19T07:52:28.276Z,27.33
2022-12-19T07:54:56.453Z,27.47
2022-12-19T07:57:24.627Z,27.63
2022-12-19T07:59:53.102Z,27.72
2022-12-19T08:02:21.559Z,27.60
2022-12-19T08:04:50.966Z,27.69
2022-12-19T08:07:19.264Z,27.73
2022-12-19T08:09:47.542Z,27.76
2022-12-19T08:12:17.018Z,27.57
2022-12-19T08:14:45.339Z,27.47
2022-12-19T08:17:21.390Z,27.35
2022-12-19T08:19:49.999Z,27.47
2022-12-19T08:22:18.240Z,27.29
2022-12-19T08:24:46.390Z,27.16
2022-12-19T08:27:17.176Z,26.33
2022-12-19T08:29:45.351Z,24.86
2022-12-19T08:32:20.465Z,26.19
2022-12-19T08:34:50.521Z,26.60
2022-12-19T08:37:18.691Z,26.76
2022-12-19T08:39:46.940Z,26.58
2022-12-19T08:42:15.024Z,26.20
2022-12-19T08:44:43.279Z,26.68
2022-12-19T08:47:11.429Z,26.91
2022-12-19T08:49:39.649Z,27.08
2022-12-19T08:52:08.143Z,27.28
2022-12-19T08:54:36.714Z,27.34
2022-12-19T08:57:04.914Z,27.41
2022-12-19T08:59:33.100Z,28.00
2022-12-19T09:02:02.530Z,29.46
2022-12-19T09:06:00.116Z,29.87
2022-12-19T09:07:19.277Z,29.91
2022-12-19T09:09:47.484Z,29.17
2022-12-19T09:12:18.392Z,29.22
2022-12-19T09:14:46.972Z,29.50
2022-12-19T09:17:15.396Z,29.24
2022-12-19T09:19:47.500Z,29.57
2022-12-19T09:22:16.957Z,30.08
2022-12-19T09:24:45.920Z,30.61
2022-12-19T09:27:17.869Z,30.74
2022-12-19T09:29:51.952Z,31.02
2022-12-19T09:32:20.297Z,30.99
2022-12-19T09:34:48.378Z,30.90
2022-12-19T09:37:17.859Z,31.48
2022-12-19T09:39:47.681Z,31.86
2022-12-19T09:42:21.932Z,31.95
2022-12-19T09:45:10.534Z,31.86
2022-12-19T09:47:47.259Z,31.29
2022-12-19T09:50:31.753Z,30.00
2022-12-19T09:53:13.251Z,29.96
2022-12-19T09:55:42.754Z,29.82
2022-12-19T09:58:54.219Z,29.82
2022-12-19T10:01:30.916Z,30.92
2022-12-19T10:04:13.059Z,30.88
2022-12-19T10:07:09.003Z,30.21
2022-12-19T10:11:13.994Z,28.87
2022-12-19T10:12:51.924Z,28.88
2022-12-19T10:15:46.181Z,28.82
2022-12-19T10:18:57.033Z,28.86
2022-12-19T10:22:17.269Z,28.84
2022-12-19T10:25:17.414Z,28.78
2022-12-19T10:28:35.996Z,28.98
2022-12-19T10:31:33.010Z,29.12
2022-12-19T10:34:38.707Z,29.12
2022-12-19T10:37:40.880Z,29.32
2022-12-19T10:40:28.623Z,29.23
2022-12-19T10:43:22.878Z,29.21
2022-12-19T10:45:59.663Z,29.31
2022-12-19T10:48:31.295Z,29.29
2022-12-19T10:51:00.677Z,29.41
2022-12-19T10:53:35.132Z,29.39
2022-12-19T10:56:20.702Z,29.30
2022-12-19T10:58:57.455Z,29.26
2022-12-19T11:01:36.180Z,29.36
2022-12-19T11:04:30.211Z,29.27
2022-12-19T11:07:07.588Z,29.42
2022-12-19T11:09:41.875Z,29.31
2022-12-19T11:14:28.168Z,29.34
2022-12-19T11:21:07.240Z,29.32
2022-12-19T11:27:37.709Z,29.28
2022-12-19T11:29:32.936Z,29.46
2022-12-19T11:30:09.923Z,29.47
2022-12-19T11:30:38.648Z,29.30
2022-12-19T11:32:44.230Z,29.23
2022-12-19T11:35:24.686Z,29.41
2022-12-19T11:37:57.379Z,29.22
2022-12-19T11:40:51.070Z,29.09
2022-12-19T11:43:46.681Z,29.20
2022-12-19T11:46:40.498Z,29.29
2022-12-19T11:49:35.133Z,29.01
2022-12-19T11:55:56.138Z,28.86
2022-12-19T11:58:31.256Z,28.84
2022-12-19T12:01:20.769Z,28.79
2022-12-19T12:04:19.307Z,28.93
2022-12-19T12:06:56.625Z,28.98
2022-12-19T12:15:03.510Z,29.13
2022-12-19T12:22:34.791Z,29.29
2022-12-19T12:31:09.270Z,29.32
2022-12-19T12:31:11.703Z,29.50
2022-12-19T12:31:40.359Z,29.63
2022-12-19T12:31:40.925Z,29.68
2022-12-19T12:32:00.732Z,29.86
2022-12-19T12:35:51.511Z,29.74
2022-12-19T12:38:36.076Z,29.77
2022-12-19T12:41:07.845Z,30.03
2022-12-19T12:44:00.811Z,30.34
2022-12-19T12:46:39.939Z,30.38
2022-12-19T12:49:59.159Z,30.37
2022-12-19T12:52:55.580Z,30.45
2022-12-19T12:55:41.424Z,30.35
2022-12-19T12:58:54.479Z,30.65
2022-12-19T13:01:28.598Z,30.80
2022-12-19T13:04:02.724Z,30.68
2022-12-19T13:06:39.910Z,30.92
2022-12-19T13:09:20.062Z,30.84
2022-12-19T13:12:13.163Z,30.80
2022-12-19T13:14:46.745Z,31.07
2022-12-19T13:17:24.192Z,31.33
2022-12-19T13:20:17.957Z,31.30
2022-12-19T13:22:58.802Z,31.47
2022-12-19T13:25:27.037Z,31.52
2022-12-19T13:28:33.684Z,31.43
2022-12-19T13:31:15.477Z,31.25
2022-12-19T13:33:56.232Z,31.26
2022-12-19T13:39:49.683Z,31.20
2022-12-19T13:40:10.858Z,30.53
2022-12-19T13:43:25.077Z,29.98
2022-12-19T13:46:03.035Z,29.95
2022-12-19T13:48:41.644Z,29.89
2022-12-19T13:51:12.515Z,29.37
2022-12-19T13:53:43.359Z,29.49
2022-12-19T13:56:18.110Z,29.34
2022-12-19T13:58:58.162Z,29.24
2022-12-19T14:01:38.479Z,29.28
2022-12-19T14:04:12.144Z,29.93
2022-12-19T14:06:54.253Z,29.92
2022-12-19T14:11:33.442Z,29.87
2022-12-19T14:13:57.670Z,29.81
2022-12-19T14:15:52.511Z,29.82
2022-12-19T14:18:42.688Z,29.77
2022-12-19T14:22:04.466Z,29.96
2022-12-19T14:24:21.842Z,29.78
2022-12-19T14:28:18.954Z,29.81
2022-12-19T14:30:30.292Z,29.68
2022-12-19T14:33:45.213Z,29.73
2022-12-19T14:36:09.090Z,29.79
2022-12-19T14:39:24.940Z,29.85
2022-12-19T14:41:48.220Z,29.90
2022-12-19T14:52:25.971Z,29.68
2022-12-19T14:55:41.771Z,29.77
2022-12-19T14:58:51.531Z,29.70
2022-12-19T15:01:09.225Z,29.07
2022-12-19T15:03:35.331Z,28.77
2022-12-19T15:07:06.042Z,28.83
2022-12-19T15:10:59.640Z,28.87
2022-12-19T15:14:55.228Z,28.71
2022-12-19T18:46:51.855Z,29.96
2022-12-19T18:49:20.649Z,29.54
2022-12-19T18:51:52.710Z,29.47
2022-12-19T18:54:22.614Z,29.98
2022-12-19T18:56:52.011Z,30.26
2022-12-19T18:59:21.618Z,30.60
2022-12-19T19:01:50.202Z,30.89
2022-12-19T19:04:19.883Z,31.14
2022-12-19T19:06:52.267Z,31.27
2022-12-19T19:09:21.824Z,31.16
2022-12-19T19:11:50.088Z,31.15
2022-12-19T19:14:18.166Z,31.04
2022-12-19T19:16:46.371Z,31.08
2022-12-19T19:19:18.436Z,30.93
2022-12-19T19:21:46.781Z,31.19
2022-12-19T19:24:21.831Z,30.99
2022-12-19T19:26:50.182Z,31.24
2022-12-19T19:29:19.815Z,31.08
2022-12-19T19:31:51.352Z,30.85
2022-12-19T19:34:31.812Z,30.87
2022-12-19T19:37:03.980Z,30.90
2022-12-19T19:39:34.308Z,30.94
2022-12-19T19:42:02.990Z,31.07
2022-12-19T19:44:31.267Z,30.89
2022-12-19T19:46:59.833Z,31.06
2022-12-19T19:49:28.240Z,31.01
2022-12-19T19:52:02.160Z,31.12
2022-12-19T19:54:32.398Z,31.09
2022-12-19T19:57:00.944Z,31.36
2022-12-19T19:59:31.379Z,31.37
2022-12-19T20:01:59.897Z,31.48
2022-12-19T20:04:28.237Z,31.51
2022-12-19T20:06:56.610Z,31.62
2022-12-19T20:09:24.786Z,31.64
2022-12-19T20:11:52.965Z,31.61
2022-12-19T20:14:21.126Z,31.71
2022-12-19T20:16:50.731Z,31.63
2022-12-19T20:19:19.066Z,31.41
2022-12-19T20:21:47.316Z,31.56
2022-12-19T20:24:15.473Z,31.42
2022-12-19T20:26:43.747Z,31.41
2022-12-19T20:29:11.933Z,31.57
2022-12-19T20:31:41.508Z,31.53
2022-12-19T20:34:09.991Z,31.52
2022-12-19T20:36:38.181Z,31.50
2022-12-19T20:39:06.737Z,31.45
2022-12-19T20:41:35.351Z,31.42
2022-12-19T20:44:03.837Z,31.63
2022-12-19T20:46:32.168Z,31.49
2022-12-19T20:49:00.879Z,31.49
2022-12-19T20:51:29.022Z,31.67
2022-12-19T20:53:57.239Z,31.76
2022-12-19T20:56:26.097Z,31.46
2022-12-19T20:58:54.713Z,31.54
2022-12-19T21:01:25.404Z,31.46
2022-12-19T21:03:53.871Z,31.62
2022-12-19T21:06:27.406Z,31.41
2022-12-19T21:08:57.134Z,31.53
2022-12-19T21:11:26.598Z,31.38
2022-12-19T21:13:54.829Z,31.61
2022-12-19T21:16:23.754Z,31.62
2022-12-19T21:18:52.176Z,31.72
2022-12-19T21:21:26.162Z,31.76
2022-12-19T21:23:56.043Z,31.71
2022-12-19T21:26:26.025Z,31.71
2022-12-19T21:28:57.819Z,31.91
2022-12-19T21:31:29.805Z,32.07
2022-12-19T21:34:00.404Z,32.00
2022-12-19T21:36:30.769Z,31.92
2022-12-19T21:39:01.913Z,32.09
2022-12-19T21:41:31.667Z,32.13
2022-12-19T21:44:00.703Z,32.13
2022-12-19T21:46:35.705Z,32.21
2022-12-19T21:49:03.901Z,32.20
2022-12-19T21:51:32.760Z,32.21
2022-12-19T21:54:04.104Z,32.27
2022-12-19T21:56:35.645Z,32.15
2022-12-19T21:59:07.828Z,32.24
2022-12-19T22:01:36.335Z,32.35
2022-12-19T22:04:17.994Z,32.44
2022-12-19T22:06:47.522Z,32.30
2022-12-19T22:09:20.025Z,32.39
2022-12-19T22:11:48.753Z,32.37
2022-12-19T22:14:17.888Z,32.46
2022-12-19T22:16:46.330Z,32.38
2022-12-19T22:19:18.110Z,32.22
2022-12-19T22:21:47.481Z,32.14
2022-12-19T22:24:17.383Z,32.16
2022-12-19T22:26:46.008Z,32.07
2022-12-19T22:29:16.437Z,31.93
2022-12-19T22:31:46.204Z,32.01
2022-12-19T22:34:18.639Z,31.98
2022-12-19T22:36:48.908Z,32.02
2022-12-19T22:39:19.782Z,31.94
2022-12-19T22:41:48.038Z,31.84
2022-12-19T22:44:23.501Z,31.77
2022-12-19T22:46:52.507Z,31.99
2022-12-19T22:49:21.007Z,31.88
2022-12-19T22:51:50.038Z,31.72
2022-12-19T22:54:18.242Z,31.72
2022-12-19T22:56:50.120Z,31.81
2022-12-19T22:59:18.385Z,32.00
2022-12-19T23:01:46.661Z,31.85
2022-12-19T23:04:16.048Z,31.94
2022-12-19T23:06:44.685Z,31.78
2022-12-19T23:09:17.322Z,31.85
2022-12-19T23:11:49.226Z,31.73
2022-12-19T23:14:19.824Z,31.85
2022-12-19T23:16:48.659Z,31.81
2022-12-19T23:19:18.474Z,31.72
2022-12-19T23:21:46.814Z,31.81
2022-12-19T23:24:15.181Z,31.81
2022-12-19T23:26:43.374Z,31.85
2022-12-19T23:29:15.319Z,31.81
2022-12-19T23:31:46.659Z,31.81
2022-12-19T23:34:16.577Z,31.89
2022-12-19T23:37:10.300Z,32.00
2022-12-19T23:39:33.819Z,32.01
2022-12-19T23:42:02.178Z,31.96
2022-12-19T23:44:30.605Z,31.88
2022-12-19T23:47:02.942Z,31.95
2022-12-19T23:49:33.956Z,31.95
2022-12-19T23:52:02.262Z,31.92
2022-12-19T23:54:30.454Z,31.84
2022-12-19T23:56:58.726Z,31.91
2022-12-19T23:59:26.907Z,31.96
